sensor_id;sensor_type;location;lat;lon;timestamp;temperature;humidity
20858;DHT22;10589;53.636;10.012;2022-08-21T03:47:03;12.30;99.90
20858;DHT22;10589;53.636;10.012;2022-08-21T03:49:29;12.30;99.90
20858;DHT22;10589;53.636;10.012;2022-08-21T03:51:54;12.20;99.90
20858;DHT22;10589;53.636;10.012;2022-08-21T03:54:20;12.20;99.90
20858;DHT22;10589;53.636;10.012;2022-08-21T03:56:46;12.20;99.90
20858;DHT22;10589;53.636;10.012;2022-08-21T03:59:12;12.20;99.90
20858;DHT22;10589;53.636;10.012;2022-08-21T04:01:38;12.20;99.90
20858;DHT22;10589;53.636;10.012;2022-08-21T04:04:05;12.20;99.90
20858;DHT22;10589;53.636;10.012;2022-08-21T04:06:31;12.20;99.90
20858;DHT22;10589;53.636;10.012;2022-08-21T04:08:57;12.10;99.90
20858;DHT22;10589;53.636;10.012;2022-08-21T04:11:22;12.20;99.90
20858;DHT22;10589;53.636;10.012;2022-08-21T04:13:48;12.20;99.90
20858;DHT22;10589;53.636;10.012;2022-08-21T04:16:14;12.20;99.90
20858;DHT22;10589;53.636;10.012;2022-08-21T04:18:40;12.20;99.90
20858;DHT22;10589;53.636;10.012;2022-08-21T04:21:07;12.20;99.90
20858;DHT22;10589;53.636;10.012;2022-08-21T04:23:34;12.20;99.90
20858;DHT22;10589;53.636;10.012;2022-08-21T04:25:59;12.20;99.90
20858;DHT22;10589;53.636;10.012;2022-08-21T04:28:26;12.30;99.90
20858;DHT22;10589;53.636;10.012;2022-08-21T04:30:53;12.30;99.90
20858;DHT22;10589;53.636;10.012;2022-08-21T04:33:20;12.40;99.90
20858;DHT22;10589;53.636;10.012;2022-08-21T04:35:46;12.50;99.90
20858;DHT22;10589;53.636;10.012;2022-08-21T04:38:12;12.60;99.90
20858;DHT22;10589;53.636;10.012;2022-08-21T04:40:37;12.60;99.90
20858;DHT22;10589;53.636;10.012;2022-08-21T04:43:06;12.80;99.90
20858;DHT22;10589;53.636;10.012;2022-08-21T04:45:38;12.80;99.90
20858;DHT22;10589;53.636;10.012;2022-08-21T04:48:05;12.90;99.90
20858;DHT22;10589;53.636;10.012;2022-08-21T04:53:10;12.90;99.90
20858;DHT22;10589;53.636;10.012;2022-08-21T04:55:37;13.00;99.90
20858;DHT22;10589;53.636;10.012;2022-08-21T04:58:05;13.10;99.90
20858;DHT22;10589;53.636;10.012;2022-08-21T05:00:32;13.10;99.90
20858;DHT22;10589;53.636;10.012;2022-08-21T05:02:59;13.20;99.90
20858;DHT22;10589;53.636;10.012;2022-08-21T05:05:28;13.20;99.90
20858;DHT22;10589;53.636;10.012;2022-08-21T05:07:55;13.20;99.90
20858;DHT22;10589;53.636;10.012;2022-08-21T05:10:21;13.20;99.90
20858;DHT22;10589;53.636;10.012;2022-08-21T05:12:48;13.30;99.90
20858;DHT22;10589;53.636;10.012;2022-08-21T05:15:15;13.40;99.90
20858;DHT22;10589;53.636;10.012;2022-08-21T05:17:42;13.40;99.90
20858;DHT22;10589;53.636;10.012;2022-08-21T05:20:12;13.60;99.90
20858;DHT22;10589;53.636;10.012;2022-08-21T05:22:38;13.70;99.90
20858;DHT22;10589;53.636;10.012;2022-08-21T05:25:05;13.90;99.90
20858;DHT22;10589;53.636;10.012;2022-08-21T05:27:31;14.00;99.90
20858;DHT22;10589;53.636;10.012;2022-08-21T05:29:57;14.20;99.90
20858;DHT22;10589;53.636;10.012;2022-08-21T05:32:23;14.30;99.90
20858;DHT22;10589;53.636;10.012;2022-08-21T05:34:49;14.40;99.90
20858;DHT22;10589;53.636;10.012;2022-08-21T05:37:15;14.50;99.90
20858;DHT22;10589;53.636;10.012;2022-08-21T05:39:41;14.70;99.90
20858;DHT22;10589;53.636;10.012;2022-08-21T05:42:07;14.80;99.90
20858;DHT22;10589;53.636;10.012;2022-08-21T05:44:33;14.90;99.90
20858;DHT22;10589;53.636;10.012;2022-08-21T05:47:06;15.00;99.90
20858;DHT22;10589;53.636;10.012;2022-08-21T05:49:32;15.10;99.90
20858;DHT22;10589;53.636;10.012;2022-08-21T05:51:58;15.20;99.90
20858;DHT22;10589;53.636;10.012;2022-08-21T05:54:24;15.40;99.90
20858;DHT22;10589;53.636;10.012;2022-08-21T05:56:50;15.50;99.90
20858;DHT22;10589;53.636;10.012;2022-08-21T05:59:15;15.60;99.90
20858;DHT22;10589;53.636;10.012;2022-08-21T06:01:41;15.60;99.90
20858;DHT22;10589;53.636;10.012;2022-08-21T06:04:07;15.70;99.90
20858;DHT22;10589;53.636;10.012;2022-08-21T06:06:33;15.70;99.90
20858;DHT22;10589;53.636;10.012;2022-08-21T06:08:59;15.80;99.90
20858;DHT22;10589;53.636;10.012;2022-08-21T06:11:25;15.80;99.90
20858;DHT22;10589;53.636;10.012;2022-08-21T06:13:50;15.90;99.90
20858;DHT22;10589;53.636;10.012;2022-08-21T06:16:17;15.90;99.90
20858;DHT22;10589;53.636;10.012;2022-08-21T06:18:44;16.00;99.90
20858;DHT22;10589;53.636;10.012;2022-08-21T06:21:10;16.10;99.90
20858;DHT22;10589;53.636;10.012;2022-08-21T06:23:37;16.30;99.90
20858;DHT22;10589;53.636;10.012;2022-08-21T06:26:03;16.40;99.90
20858;DHT22;10589;53.636;10.012;2022-08-21T06:28:30;16.50;99.90
20858;DHT22;10589;53.636;10.012;2022-08-21T06:30:56;16.60;99.90
20858;DHT22;10589;53.636;10.012;2022-08-21T06:33:22;16.60;99.90
20858;DHT22;10589;53.636;10.012;2022-08-21T06:35:47;16.60;99.90
20858;DHT22;10589;53.636;10.012;2022-08-21T06:38:13;16.60;99.90
20858;DHT22;10589;53.636;10.012;2022-08-21T06:40:39;16.60;99.90
20858;DHT22;10589;53.636;10.012;2022-08-21T06:43:16;16.60;99.90
20858;DHT22;10589;53.636;10.012;2022-08-21T06:45:43;16.70;99.90
20858;DHT22;10589;53.636;10.012;2022-08-21T06:48:09;16.80;99.90
20858;DHT22;10589;53.636;10.012;2022-08-21T06:50:36;16.80;99.90
20858;DHT22;10589;53.636;10.012;2022-08-21T06:53:10;16.90;99.90
20858;DHT22;10589;53.636;10.012;2022-08-21T06:55:37;16.90;99.90
20858;DHT22;10589;53.636;10.012;2022-08-21T06:58:03;16.90;99.90
20858;DHT22;10589;53.636;10.012;2022-08-21T07:00:29;17.00;99.90
20858;DHT22;10589;53.636;10.012;2022-08-21T07:02:55;17.10;99.90
20858;DHT22;10589;53.636;10.012;2022-08-21T07:05:21;17.20;99.90
20858;DHT22;10589;53.636;10.012;2022-08-21T07:07:47;17.20;99.90
20858;DHT22;10589;53.636;10.012;2022-08-21T07:10:14;17.30;99.90
20858;DHT22;10589;53.636;10.012;2022-08-21T07:12:40;17.40;99.90
20858;DHT22;10589;53.636;10.012;2022-08-21T07:15:06;17.50;99.90
20858;DHT22;10589;53.636;10.012;2022-08-21T07:17:32;17.60;99.90
20858;DHT22;10589;53.636;10.012;2022-08-21T07:19:58;17.70;99.90
20858;DHT22;10589;53.636;10.012;2022-08-21T07:22:23;17.80;99.90
20858;DHT22;10589;53.636;10.012;2022-08-21T07:24:49;17.90;99.90
20858;DHT22;10589;53.636;10.012;2022-08-21T07:27:15;18.00;99.90
20858;DHT22;10589;53.636;10.012;2022-08-21T07:29:40;18.10;99.90
20858;DHT22;10589;53.636;10.012;2022-08-21T07:32:06;18.30;99.90
20858;DHT22;10589;53.636;10.012;2022-08-21T07:34:32;18.40;99.90
20858;DHT22;10589;53.636;10.012;2022-08-21T07:36:58;18.50;99.90
20858;DHT22;10589;53.636;10.012;2022-08-21T07:39:24;18.70;99.90
20858;DHT22;10589;53.636;10.012;2022-08-21T07:41:50;18.90;99.90
20858;DHT22;10589;53.636;10.012;2022-08-21T07:44:16;19.10;99.90
20858;DHT22;10589;53.636;10.012;2022-08-21T07:46:42;19.30;99.90
20858;DHT22;10589;53.636;10.012;2022-08-21T07:49:07;19.50;99.90
20858;DHT22;10589;53.636;10.012;2022-08-21T07:51:33;19.60;99.90
20858;DHT22;10589;53.636;10.012;2022-08-21T07:54:00;19.70;99.90
20858;DHT22;10589;53.636;10.012;2022-08-21T07:56:26;19.90;99.90
20858;DHT22;10589;53.636;10.012;2022-08-21T07:58:53;20.10;99.90
20858;DHT22;10589;53.636;10.012;2022-08-21T08:01:19;20.20;99.90
20858;DHT22;10589;53.636;10.012;2022-08-21T08:03:45;20.40;99.90
20858;DHT22;10589;53.636;10.012;2022-08-21T08:06:11;20.50;99.90
20858;DHT22;10589;53.636;10.012;2022-08-21T08:08:42;20.70;99.90
20858;DHT22;10589;53.636;10.012;2022-08-21T08:11:09;20.80;99.90
20858;DHT22;10589;53.636;10.012;2022-08-21T08:13:46;21.00;99.90
20858;DHT22;10589;53.636;10.012;2022-08-21T08:16:13;21.10;99.90
20858;DHT22;10589;53.636;10.012;2022-08-21T08:18:39;21.40;99.90
20858;DHT22;10589;53.636;10.012;2022-08-21T08:21:08;21.50;99.90
20858;DHT22;10589;53.636;10.012;2022-08-21T08:23:34;21.60;99.90
20858;DHT22;10589;53.636;10.012;2022-08-21T08:26:00;21.80;99.90
20858;DHT22;10589;53.636;10.012;2022-08-21T08:28:28;21.90;99.90
20858;DHT22;10589;53.636;10.012;2022-08-21T08:30:54;22.00;99.90
20858;DHT22;10589;53.636;10.012;2022-08-21T08:33:21;22.20;99.90
20858;DHT22;10589;53.636;10.012;2022-08-21T08:35:48;22.30;99.90
20858;DHT22;10589;53.636;10.012;2022-08-21T08:38:15;22.50;99.90
20858;DHT22;10589;53.636;10.012;2022-08-21T08:43:30;22.70;99.90
20858;DHT22;10589;53.636;10.012;2022-08-21T08:45:59;22.80;99.90
20858;DHT22;10589;53.636;10.012;2022-08-21T08:51:21;22.80;99.90
20858;DHT22;10589;53.636;10.012;2022-08-21T08:54:02;22.90;99.90
20858;DHT22;10589;53.636;10.012;2022-08-21T08:56:31;22.90;99.90
20858;DHT22;10589;53.636;10.012;2022-08-21T08:59:08;23.00;99.90
20858;DHT22;10589;53.636;10.012;2022-08-21T09:01:35;23.10;99.90
20858;DHT22;10589;53.636;10.012;2022-08-21T09:04:01;23.10;99.90
20858;DHT22;10589;53.636;10.012;2022-08-21T09:06:37;23.20;99.90
20858;DHT22;10589;53.636;10.012;2022-08-21T09:14:31;23.40;99.90
20858;DHT22;10589;53.636;10.012;2022-08-21T09:19:56;23.50;99.90
20858;DHT22;10589;53.636;10.012;2022-08-21T09:25:20;23.60;99.90
20858;DHT22;10589;53.636;10.012;2022-08-21T09:27:47;23.40;99.90
20858;DHT22;10589;53.636;10.012;2022-08-21T09:30:14;23.60;99.90
20858;DHT22;10589;53.636;10.012;2022-08-21T09:32:40;23.80;99.90
20858;DHT22;10589;53.636;10.012;2022-08-21T09:35:15;23.90;99.90
20858;DHT22;10589;53.636;10.012;2022-08-21T09:37:57;24.00;99.90
20858;DHT22;10589;53.636;10.012;2022-08-21T09:40:44;24.00;99.90
20858;DHT22;10589;53.636;10.012;2022-08-21T09:43:19;24.10;99.90
20858;DHT22;10589;53.636;10.012;2022-08-21T09:45:46;24.30;99.90
20858;DHT22;10589;53.636;10.012;2022-08-21T09:48:15;24.10;99.90
20858;DHT22;10589;53.636;10.012;2022-08-21T09:50:44;24.20;99.90
20858;DHT22;10589;53.636;10.012;2022-08-21T09:53:29;24.30;99.90
20858;DHT22;10589;53.636;10.012;2022-08-21T09:58:46;24.50;99.90
20858;DHT22;10589;53.636;10.012;2022-08-21T10:01:21;24.80;99.90
20858;DHT22;10589;53.636;10.012;2022-08-21T10:03:48;24.90;99.90
20858;DHT22;10589;53.636;10.012;2022-08-21T10:06:26;25.10;99.90
20858;DHT22;10589;53.636;10.012;2022-08-21T10:09:05;25.10;99.90
20858;DHT22;10589;53.636;10.012;2022-08-21T10:11:32;25.00;99.90
20858;DHT22;10589;53.636;10.012;2022-08-21T10:14:05;24.80;99.90
20858;DHT22;10589;53.636;10.012;2022-08-21T10:19:26;24.70;99.90
20858;DHT22;10589;53.636;10.012;2022-08-21T10:22:15;24.90;99.90
20858;DHT22;10589;53.636;10.012;2022-08-21T10:30:05;26.00;99.90
20858;DHT22;10589;53.636;10.012;2022-08-21T10:35:28;26.70;99.90
20858;DHT22;10589;53.636;10.012;2022-08-21T10:40:27;26.80;97.20
20858;DHT22;10589;53.636;10.012;2022-08-21T10:49:05;26.60;95.70
20858;DHT22;10589;53.636;10.012;2022-08-21T10:54:20;26.80;96.00
20858;DHT22;10589;53.636;10.012;2022-08-21T10:56:57;26.90;94.40
20858;DHT22;10589;53.636;10.012;2022-08-21T11:04:45;26.70;94.60
20858;DHT22;10589;53.636;10.012;2022-08-21T11:07:30;26.70;96.10
20858;DHT22;10589;53.636;10.012;2022-08-21T11:10:10;26.60;96.20
20858;DHT22;10589;53.636;10.012;2022-08-21T11:12:45;26.90;95.90
20858;DHT22;10589;53.636;10.012;2022-08-21T11:15:48;26.90;93.60
20858;DHT22;10589;53.636;10.012;2022-08-21T11:18:26;26.80;93.00
20858;DHT22;10589;53.636;10.012;2022-08-21T11:29:39;26.00;92.80
20858;DHT22;10589;53.636;10.012;2022-08-21T11:35:05;25.40;92.50
20858;DHT22;10589;53.636;10.012;2022-08-21T11:45:59;25.60;94.50
20858;DHT22;10589;53.636;10.012;2022-08-21T11:51:12;25.60;94.50
20858;DHT22;10589;53.636;10.012;2022-08-21T11:56:45;26.00;93.80
20858;DHT22;10589;53.636;10.012;2022-08-21T11:59:20;25.80;93.20
20858;DHT22;10589;53.636;10.012;2022-08-21T12:01:50;25.70;92.90
20858;DHT22;10589;53.636;10.012;2022-08-21T12:06:45;25.70;92.90
20858;DHT22;10589;53.636;10.012;2022-08-21T12:09:33;25.90;92.80
20858;DHT22;10589;53.636;10.012;2022-08-21T12:12:10;26.10;93.50
20858;DHT22;10589;53.636;10.012;2022-08-21T12:14:48;26.60;91.60
20858;DHT22;10589;53.636;10.012;2022-08-21T12:17:24;27.00;91.20
20858;DHT22;10589;53.636;10.012;2022-08-21T12:22:41;27.30;91.10
20858;DHT22;10589;53.636;10.012;2022-08-21T12:25:18;27.30;90.40
20858;DHT22;10589;53.636;10.012;2022-08-21T12:27:51;27.40;90.70
20858;DHT22;10589;53.636;10.012;2022-08-21T12:30:36;27.70;90.40
20858;DHT22;10589;53.636;10.012;2022-08-21T12:33:50;27.90;89.70
20858;DHT22;10589;53.636;10.012;2022-08-21T12:35:52;28.20;88.80
20858;DHT22;10589;53.636;10.012;2022-08-21T12:38:26;28.80;90.20
20858;DHT22;10589;53.636;10.012;2022-08-21T12:41:04;28.90;88.40
20858;DHT22;10589;53.636;10.012;2022-08-21T12:44:20;28.80;91.00
20858;DHT22;10589;53.636;10.012;2022-08-21T12:49:27;29.50;87.50
20858;DHT22;10589;53.636;10.012;2022-08-21T12:51:54;30.10;85.40
20858;DHT22;10589;53.636;10.012;2022-08-21T12:54:30;31.30;83.30
20858;DHT22;10589;53.636;10.012;2022-08-21T12:56:58;32.40;81.40
20858;DHT22;10589;53.636;10.012;2022-08-21T12:59:24;33.40;79.50
20858;DHT22;10589;53.636;10.012;2022-08-21T13:01:52;33.60;78.70
20858;DHT22;10589;53.636;10.012;2022-08-21T13:04:24;33.40;77.60
20858;DHT22;10589;53.636;10.012;2022-08-21T13:06:54;33.00;77.30
20858;DHT22;10589;53.636;10.012;2022-08-21T13:09:26;34.40;73.70
20858;DHT22;10589;53.636;10.012;2022-08-21T13:11:52;35.70;70.90
20858;DHT22;10589;53.636;10.012;2022-08-21T13:16:57;38.40;65.90
20858;DHT22;10589;53.636;10.012;2022-08-21T13:19:24;40.00;61.60
20858;DHT22;10589;53.636;10.012;2022-08-21T13:21:51;38.70;61.40
20858;DHT22;10589;53.636;10.012;2022-08-21T13:24:25;36.80;62.80
20858;DHT22;10589;53.636;10.012;2022-08-21T13:26:51;34.70;66.30
20858;DHT22;10589;53.636;10.012;2022-08-21T13:29:21;33.20;66.30
20858;DHT22;10589;53.636;10.012;2022-08-21T13:31:53;31.90;68.20
20858;DHT22;10589;53.636;10.012;2022-08-21T13:34:23;31.00;71.30
20858;DHT22;10589;53.636;10.012;2022-08-21T13:36:56;32.20;68.70
20858;DHT22;10589;53.636;10.012;2022-08-21T13:39:23;33.70;66.00
20858;DHT22;10589;53.636;10.012;2022-08-21T13:41:51;34.60;66.30
20858;DHT22;10589;53.636;10.012;2022-08-21T13:44:22;35.70;66.10
20858;DHT22;10589;53.636;10.012;2022-08-21T13:46:52;36.50;63.30
20858;DHT22;10589;53.636;10.012;2022-08-21T13:49:23;37.00;64.60
20858;DHT22;10589;53.636;10.012;2022-08-21T13:51:51;37.90;60.60
20858;DHT22;10589;53.636;10.012;2022-08-21T13:54:43;38.70;61.70
20858;DHT22;10589;53.636;10.012;2022-08-21T13:57:28;39.30;59.40
20858;DHT22;10589;53.636;10.012;2022-08-21T14:00:20;40.30;56.40
20858;DHT22;10589;53.636;10.012;2022-08-21T14:02:51;40.10;56.90
20858;DHT22;10589;53.636;10.012;2022-08-21T14:05:45;39.90;56.50
20858;DHT22;10589;53.636;10.012;2022-08-21T14:08:22;39.30;55.80
20858;DHT22;10589;53.636;10.012;2022-08-21T14:10:51;39.90;55.40
20858;DHT22;10589;53.636;10.012;2022-08-21T14:16:15;39.30;55.00
20858;DHT22;10589;53.636;10.012;2022-08-21T14:21:31;39.50;54.60
20858;DHT22;10589;53.636;10.012;2022-08-21T14:29:25;40.30;53.90
20858;DHT22;10589;53.636;10.012;2022-08-21T14:31:57;40.20;54.80
20858;DHT22;10589;53.636;10.012;2022-08-21T14:34:27;40.30;54.80
20858;DHT22;10589;53.636;10.012;2022-08-21T14:36:55;40.80;51.60
20858;DHT22;10589;53.636;10.012;2022-08-21T14:39:21;39.20;54.30
20858;DHT22;10589;53.636;10.012;2022-08-21T14:41:47;38.50;55.10
20858;DHT22;10589;53.636;10.012;2022-08-21T14:44:17;38.50;55.60
20858;DHT22;10589;53.636;10.012;2022-08-21T14:46:43;38.30;56.00
20858;DHT22;10589;53.636;10.012;2022-08-21T14:49:10;38.90;57.50
20858;DHT22;10589;53.636;10.012;2022-08-21T14:51:37;38.60;55.50
20858;DHT22;10589;53.636;10.012;2022-08-21T14:54:04;36.90;56.70
20858;DHT22;10589;53.636;10.012;2022-08-21T14:56:31;35.30;57.80
20858;DHT22;10589;53.636;10.012;2022-08-21T14:59:03;33.90;60.20
20858;DHT22;10589;53.636;10.012;2022-08-21T15:01:44;32.80;62.70
20858;DHT22;10589;53.636;10.012;2022-08-21T15:04:09;31.70;64.80
20858;DHT22;10589;53.636;10.012;2022-08-21T15:06:36;31.20;66.10
20858;DHT22;10589;53.636;10.012;2022-08-21T15:09:02;31.10;65.70
20858;DHT22;10589;53.636;10.012;2022-08-21T15:11:32;31.00;64.70
20858;DHT22;10589;53.636;10.012;2022-08-21T15:14:00;31.00;67.40
20858;DHT22;10589;53.636;10.012;2022-08-21T15:16:28;30.60;67.90
20858;DHT22;10589;53.636;10.012;2022-08-21T15:18:54;30.80;67.50
20858;DHT22;10589;53.636;10.012;2022-08-21T15:21:20;31.00;68.40
20858;DHT22;10589;53.636;10.012;2022-08-21T15:29:43;30.20;68.60
20858;DHT22;10589;53.636;10.012;2022-08-21T15:32:19;31.30;68.00
20858;DHT22;10589;53.636;10.012;2022-08-21T15:34:44;32.50;64.40
20858;DHT22;10589;53.636;10.012;2022-08-21T15:37:10;32.40;63.40
20858;DHT22;10589;53.636;10.012;2022-08-21T15:39:36;31.60;66.00
20858;DHT22;10589;53.636;10.012;2022-08-21T15:42:02;30.80;66.30
20858;DHT22;10589;53.636;10.012;2022-08-21T15:44:28;30.10;67.80
20858;DHT22;10589;53.636;10.012;2022-08-21T15:46:55;29.30;68.60
20858;DHT22;10589;53.636;10.012;2022-08-21T15:49:22;28.80;70.80
20858;DHT22;10589;53.636;10.012;2022-08-21T15:51:48;29.00;68.50
20858;DHT22;10589;53.636;10.012;2022-08-21T15:54:14;29.00;68.80
20858;DHT22;10589;53.636;10.012;2022-08-21T15:56:42;29.10;71.00
20858;DHT22;10589;53.636;10.012;2022-08-21T15:59:20;29.80;69.60
20858;DHT22;10589;53.636;10.012;2022-08-21T16:01:49;30.80;67.30
20858;DHT22;10589;53.636;10.012;2022-08-21T16:04:21;31.40;66.70
20858;DHT22;10589;53.636;10.012;2022-08-21T16:06:47;31.60;66.50
20858;DHT22;10589;53.636;10.012;2022-08-21T16:09:14;32.00;64.60
20858;DHT22;10589;53.636;10.012;2022-08-21T16:11:41;32.30;65.00
20858;DHT22;10589;53.636;10.012;2022-08-21T16:14:07;32.40;64.10
20858;DHT22;10589;53.636;10.012;2022-08-21T16:16:34;32.10;64.30
20858;DHT22;10589;53.636;10.012;2022-08-21T16:19:00;32.30;62.60
20858;DHT22;10589;53.636;10.012;2022-08-21T16:21:27;32.10;63.70
20858;DHT22;10589;53.636;10.012;2022-08-21T16:23:53;32.20;63.80
20858;DHT22;10589;53.636;10.012;2022-08-21T16:26:18;32.00;64.90
20858;DHT22;10589;53.636;10.012;2022-08-21T16:28:45;32.60;62.80
20858;DHT22;10589;53.636;10.012;2022-08-21T16:31:12;33.50;61.20
20858;DHT22;10589;53.636;10.012;2022-08-21T16:33:41;33.80;59.80
20858;DHT22;10589;53.636;10.012;2022-08-21T16:36:08;34.60;60.30
20858;DHT22;10589;53.636;10.012;2022-08-21T16:38:35;35.60;58.80
20858;DHT22;10589;53.636;10.012;2022-08-21T16:41:06;36.60;58.50
20858;DHT22;10589;53.636;10.012;2022-08-21T16:43:33;37.10;57.70
20858;DHT22;10589;53.636;10.012;2022-08-21T16:46:00;37.80;57.00
20858;DHT22;10589;53.636;10.012;2022-08-21T16:48:26;37.80;57.00
20858;DHT22;10589;53.636;10.012;2022-08-21T16:50:55;37.60;56.80
20858;DHT22;10589;53.636;10.012;2022-08-21T16:53:20;37.10;56.60
20858;DHT22;10589;53.636;10.012;2022-08-21T16:55:46;36.70;57.90
20858;DHT22;10589;53.636;10.012;2022-08-21T16:58:17;36.20;58.40
20858;DHT22;10589;53.636;10.012;2022-08-21T17:00:43;36.10;59.10
20858;DHT22;10589;53.636;10.012;2022-08-21T17:03:14;35.60;59.30
20858;DHT22;10589;53.636;10.012;2022-08-21T17:05:41;34.60;59.80
20858;DHT22;10589;53.636;10.012;2022-08-21T17:08:07;32.90;62.60
20858;DHT22;10589;53.636;10.012;2022-08-21T17:10:35;32.30;63.60
20858;DHT22;10589;53.636;10.012;2022-08-21T17:13:01;31.70;65.50
20858;DHT22;10589;53.636;10.012;2022-08-21T17:15:34;30.50;67.40
20858;DHT22;10589;53.636;10.012;2022-08-21T17:18:01;29.40;69.40
20858;DHT22;10589;53.636;10.012;2022-08-21T17:20:27;28.50;72.20
20858;DHT22;10589;53.636;10.012;2022-08-21T17:22:53;27.90;73.30
20858;DHT22;10589;53.636;10.012;2022-08-21T17:25:19;27.20;74.70
20858;DHT22;10589;53.636;10.012;2022-08-21T17:27:47;26.80;76.40
20858;DHT22;10589;53.636;10.012;2022-08-21T17:30:14;26.20;78.80
20858;DHT22;10589;53.636;10.012;2022-08-21T17:32:41;25.70;80.50
20858;DHT22;10589;53.636;10.012;2022-08-21T17:35:08;25.40;82.10
20858;DHT22;10589;53.636;10.012;2022-08-21T17:37:34;25.00;83.60
20858;DHT22;10589;53.636;10.012;2022-08-21T17:40:01;24.80;84.10
20858;DHT22;10589;53.636;10.012;2022-08-21T17:42:28;24.40;85.90
20858;DHT22;10589;53.636;10.012;2022-08-21T17:44:54;24.10;86.60
20858;DHT22;10589;53.636;10.012;2022-08-21T17:47:21;23.90;88.70
20858;DHT22;10589;53.636;10.012;2022-08-21T17:49:47;23.80;88.40
20858;DHT22;10589;53.636;10.012;2022-08-21T17:52:13;23.50;90.30
20858;DHT22;10589;53.636;10.012;2022-08-21T17:54:38;23.30;90.70
20858;DHT22;10589;53.636;10.012;2022-08-21T17:57:05;23.00;92.00
20858;DHT22;10589;53.636;10.012;2022-08-21T17:59:33;22.80;93.10
20858;DHT22;10589;53.636;10.012;2022-08-21T18:01:59;22.60;93.30
20858;DHT22;10589;53.636;10.012;2022-08-21T18:04:27;22.50;94.30
20858;DHT22;10589;53.636;10.012;2022-08-21T18:06:54;22.40;95.20
20858;DHT22;10589;53.636;10.012;2022-08-21T18:09:19;22.20;96.10
20858;DHT22;10589;53.636;10.012;2022-08-21T18:11:48;22.10;97.40
20858;DHT22;10589;53.636;10.012;2022-08-21T18:14:14;21.90;99.50
20858;DHT22;10589;53.636;10.012;2022-08-21T18:16:40;21.80;99.90
20858;DHT22;10589;53.636;10.012;2022-08-21T18:19:10;21.70;99.90
20858;DHT22;10589;53.636;10.012;2022-08-21T18:21:39;21.50;99.90
20858;DHT22;10589;53.636;10.012;2022-08-21T18:24:06;21.40;99.90
20858;DHT22;10589;53.636;10.012;2022-08-21T18:26:34;21.30;99.90
20858;DHT22;10589;53.636;10.012;2022-08-21T18:29:02;21.20;99.90
20858;DHT22;10589;53.636;10.012;2022-08-21T18:31:31;21.00;99.90
20858;DHT22;10589;53.636;10.012;2022-08-21T18:33:58;20.90;99.90
20858;DHT22;10589;53.636;10.012;2022-08-21T18:36:26;20.80;99.90
20858;DHT22;10589;53.636;10.012;2022-08-21T18:38:53;20.70;99.90
20858;DHT22;10589;53.636;10.012;2022-08-21T18:41:19;20.60;99.90
20858;DHT22;10589;53.636;10.012;2022-08-21T18:43:46;20.50;99.90
20858;DHT22;10589;53.636;10.012;2022-08-21T18:46:12;20.50;99.90
20858;DHT22;10589;53.636;10.012;2022-08-21T18:48:37;20.40;99.90
20858;DHT22;10589;53.636;10.012;2022-08-21T18:51:04;20.40;99.90
20858;DHT22;10589;53.636;10.012;2022-08-21T18:53:30;20.30;99.90
20858;DHT22;10589;53.636;10.012;2022-08-21T18:55:56;20.20;99.90
20858;DHT22;10589;53.636;10.012;2022-08-21T18:58:21;20.20;99.90
20858;DHT22;10589;53.636;10.012;2022-08-21T19:00:49;20.10;99.90
20858;DHT22;10589;53.636;10.012;2022-08-21T19:03:17;20.00;99.90
20858;DHT22;10589;53.636;10.012;2022-08-21T19:05:43;19.90;99.90
20858;DHT22;10589;53.636;10.012;2022-08-21T19:08:14;19.80;99.90
20858;DHT22;10589;53.636;10.012;2022-08-21T19:10:42;19.70;99.90
20858;DHT22;10589;53.636;10.012;2022-08-21T19:13:11;19.70;99.90
20858;DHT22;10589;53.636;10.012;2022-08-21T19:15:40;19.70;99.90
20858;DHT22;10589;53.636;10.012;2022-08-21T19:18:10;19.60;99.90
20858;DHT22;10589;53.636;10.012;2022-08-21T19:20:37;19.50;99.90
20858;DHT22;10589;53.636;10.012;2022-08-21T19:23:07;19.50;99.90
20858;DHT22;10589;53.636;10.012;2022-08-21T19:25:33;19.40;99.90
20858;DHT22;10589;53.636;10.012;2022-08-21T19:28:03;19.30;99.90
20858;DHT22;10589;53.636;10.012;2022-08-21T19:30:30;19.20;99.90
20858;DHT22;10589;53.636;10.012;2022-08-21T19:32:56;19.10;99.90
20858;DHT22;10589;53.636;10.012;2022-08-21T19:35:21;19.10;99.90
20858;DHT22;10589;53.636;10.012;2022-08-21T19:37:47;19.00;99.90
20858;DHT22;10589;53.636;10.012;2022-08-21T19:40:13;19.00;99.90
20858;DHT22;10589;53.636;10.012;2022-08-21T19:42:40;18.90;99.90
20858;DHT22;10589;53.636;10.012;2022-08-21T19:45:07;18.90;99.90
20858;DHT22;10589;53.636;10.012;2022-08-21T19:47:33;18.80;99.90
20858;DHT22;10589;53.636;10.012;2022-08-21T19:50:02;18.80;99.90
20858;DHT22;10589;53.636;10.012;2022-08-21T19:52:28;18.70;99.90
20858;DHT22;10589;53.636;10.012;2022-08-21T19:54:56;18.70;99.90
20858;DHT22;10589;53.636;10.012;2022-08-21T19:57:22;18.60;99.90
20858;DHT22;10589;53.636;10.012;2022-08-21T19:59:49;18.50;99.90
20858;DHT22;10589;53.636;10.012;2022-08-21T20:02:16;18.50;99.90
20858;DHT22;10589;53.636;10.012;2022-08-21T20:04:44;18.50;99.90
20858;DHT22;10589;53.636;10.012;2022-08-21T20:07:10;18.40;99.90
20858;DHT22;10589;53.636;10.012;2022-08-21T20:09:36;18.40;99.90
20858;DHT22;10589;53.636;10.012;2022-08-21T20:12:05;18.30;99.90
20858;DHT22;10589;53.636;10.012;2022-08-21T20:14:32;18.30;99.90
20858;DHT22;10589;53.636;10.012;2022-08-21T20:17:09;18.30;99.90
20858;DHT22;10589;53.636;10.012;2022-08-21T20:19:36;18.30;99.90
20858;DHT22;10589;53.636;10.012;2022-08-21T20:22:03;18.30;99.90
20858;DHT22;10589;53.636;10.012;2022-08-21T20:24:29;18.30;99.90
20858;DHT22;10589;53.636;10.012;2022-08-21T20:26:55;18.40;99.90
20858;DHT22;10589;53.636;10.012;2022-08-21T20:29:28;18.50;99.90
20858;DHT22;10589;53.636;10.012;2022-08-21T20:31:54;18.50;99.90
20858;DHT22;10589;53.636;10.012;2022-08-21T20:34:20;18.50;99.90
20858;DHT22;10589;53.636;10.012;2022-08-21T20:36:46;18.50;99.90
20858;DHT22;10589;53.636;10.012;2022-08-21T20:39:12;18.50;99.90
20858;DHT22;10589;53.636;10.012;2022-08-21T20:41:38;18.50;99.90
20858;DHT22;10589;53.636;10.012;2022-08-21T20:44:05;18.50;99.90
20858;DHT22;10589;53.636;10.012;2022-08-21T20:46:32;18.50;99.90
20858;DHT22;10589;53.636;10.012;2022-08-21T20:48:59;18.40;99.90
20858;DHT22;10589;53.636;10.012;2022-08-21T20:51:39;18.40;99.90
20858;DHT22;10589;53.636;10.012;2022-08-21T20:54:18;18.30;99.90